You are not logged in, Click here to log in
普吉國際機場 HKT / VTSP 泰國普吉島北部
ICAO: VTSP Country: 泰國普吉島北部
Latitude: 8.1111 Longitude: 98.3065
Total Arrivals: 7 Total Departures: 3
Latest Arrival: PG277 (VTBS-VTSP)Arthur. Kung Latest Departure: FS69 (VTSP-VDPP)CHU. CHUHAO
Scenery:
METAR : VTSP 131000Z 07006KT 050V120 9999 FEW020 31/20 Q1012 NOSIG

普吉國際機場 HKT

You are accessing this site from IP address 100.26.176.182. Virtual Airline. CMS by phpVMS.Website designed by Zumeweb and edited by Theo Bearman.
There is 0 User(s) Online: | and 10 Guest(s) Online.
All information on this site is for fight simulation purposes only. This site is for flight logging for pilots of Virtual Airline&模擬飛行論壇 FlySim only.